Time;durP1;ratioP1;P1;durP2;ratioP2;P2;SDS_P1;SDS_P2;PMS_P1;PMS_P2;Temp;Humidity;BMP_temperature;BMP_pressure;BME280_temperature;BME280_humidity;BME280_pressure;Samples;Min_cycle;Max_cycle;Signal;HPM_P1;HPM_P2
2022/04/18 00:03:30;;;;;;;4.67;2.77;;;;;;;11.14;34.91;98400.88;8394280;28;20199;-76
2022/04/18 00:07:33;;;;;;;4.43;2.60;;;;;;;11.13;34.42;98394.00;8385475;28;20196;-76
2022/04/18 00:11:36;;;;;;;3.53;2.47;;;;;;;11.04;33.09;98399.56;8384795;28;20227;-76
2022/04/18 00:15:40;;;;;;;3.10;2.20;;;;;;;11.20;33.40;98394.63;8384756;28;20204;-76
2022/04/18 00:19:43;;;;;;;5.20;2.60;;;;;;;11.15;33.38;98391.34;8384606;28;20200;-76
2022/04/18 00:23:46;;;;;;;3.70;3.20;;;;;;;11.19;34.28;98386.88;8384593;28;20220;-77
2022/04/18 00:27:49;;;;;;;4.27;3.13;;;;;;;11.05;34.62;98392.63;8384446;28;20204;-76
2022/04/18 00:31:54;;;;;;;3.63;2.83;;;;;;;10.98;34.37;98386.84;8384643;28;20227;-76
2022/04/18 00:35:57;;;;;;;5.97;2.80;;;;;;;10.89;34.85;98382.88;8384494;28;20273;-76
2022/04/18 00:39:59;;;;;;;5.07;2.80;;;;;;;10.70;35.31;98392.22;8384381;28;20246;-76
2022/04/18 00:44:05;;;;;;;6.10;3.67;;;;;;;10.54;36.05;98385.03;8383307;28;20203;-77
2022/04/18 00:48:09;;;;;;;3.83;3.10;;;;;;;10.53;36.86;98382.53;8384152;28;20215;-76
2022/04/18 00:52:12;;;;;;;4.83;3.30;;;;;;;10.30;37.23;98381.63;8383510;28;20227;-76
2022/04/18 00:56:17;;;;;;;7.00;3.30;;;;;;;10.34;37.28;98382.38;8383676;28;20199;-76
2022/04/18 01:00:21;;;;;;;6.77;3.10;;;;;;;10.25;37.17;98377.50;8383862;28;20203;-76
2022/04/18 01:04:25;;;;;;;5.30;2.93;;;;;;;10.26;37.17;98369.69;8383241;28;20200;-75
2022/04/18 01:08:29;;;;;;;5.47;3.00;;;;;;;10.28;37.00;98364.41;8383689;28;20321;-76
2022/04/18 01:12:32;;;;;;;5.37;3.20;;;;;;;10.31;36.67;98362.59;8382937;28;20235;-76
2022/04/18 01:16:35;;;;;;;3.90;3.03;;;;;;;10.31;36.60;98354.00;8382998;28;20208;-77
2022/04/18 01:20:43;;;;;;;4.70;3.33;;;;;;;10.18;36.48;98356.16;8383289;28;20234;-76
2022/04/18 01:29:07;;;;;;;3.77;2.70;;;;;;;10.16;36.91;98345.00;8382680;28;20200;-76
2022/04/18 01:33:10;;;;;;;4.27;3.10;;;;;;;10.12;36.53;98348.63;8382928;28;20234;-76
2022/04/18 01:37:14;;;;;;;5.83;3.47;;;;;;;10.04;37.14;98343.72;8382613;28;20206;-76
2022/04/18 01:41:18;;;;;;;4.40;3.30;;;;;;;9.87;38.03;98346.06;8382386;28;20247;-77
2022/04/18 01:45:21;;;;;;;4.77;3.43;;;;;;;9.78;38.34;98337.72;8382754;28;20203;-77
2022/04/18 01:49:24;;;;;;;5.87;3.27;;;;;;;9.65;38.64;98339.03;8382506;28;20238;-76
2022/04/18 01:53:30;;;;;;;5.73;3.63;;;;;;;9.75;39.06;98335.25;8381796;28;20422;-76
2022/04/18 01:57:33;;;;;;;5.23;3.63;;;;;;;9.64;38.90;98327.03;8382391;28;20200;-76
2022/04/18 02:01:36;;;;;;;4.53;3.40;;;;;;;9.62;38.36;98326.25;8382033;28;20211;-77
2022/04/18 02:05:42;;;;;;;6.57;3.80;;;;;;;9.50;38.06;98330.09;8381776;28;20540;-76
2022/04/18 02:09:46;;;;;;;4.63;3.60;;;;;;;9.53;37.83;98311.03;8382044;28;20199;-76
2022/04/18 02:13:49;;;;;;;7.23;3.93;;;;;;;9.64;38.24;98314.09;8381775;28;20227;-76
2022/04/18 02:17:52;;;;;;;4.63;3.43;;;;;;;9.64;37.83;98310.69;8381665;28;20207;-76
2022/04/18 02:21:55;;;;;;;5.07;3.63;;;;;;;9.45;38.12;98302.72;8381512;28;20417;-77
2022/04/18 02:25:59;;;;;;;6.57;3.60;;;;;;;9.36;38.64;98309.03;8382148;28;20294;-77
2022/04/18 02:30:02;;;;;;;10.00;4.07;;;;;;;9.33;39.28;98309.16;8381538;28;20207;-76
2022/04/18 02:34:05;;;;;;;6.73;3.90;;;;;;;9.24;39.35;98302.53;8381876;28;20227;-77
2022/04/18 02:38:08;;;;;;;6.33;4.03;;;;;;;9.22;39.60;98296.59;8381962;28;20389;-76
2022/04/18 02:42:12;;;;;;;4.50;2.90;;;;;;;9.28;39.23;98287.78;8381231;28;20235;-76
2022/04/18 02:46:15;;;;;;;4.03;2.67;;;;;;;9.30;38.72;98280.81;8381695;28;20212;-76
2022/04/18 02:50:18;;;;;;;4.90;3.20;;;;;;;9.16;38.90;98282.13;8381345;28;20488;-76
2022/04/18 02:54:21;;;;;;;5.33;3.00;;;;;;;9.09;39.27;98282.38;8381120;28;20223;-76
2022/04/18 02:58:25;;;;;;;3.90;3.27;;;;;;;9.12;39.34;98274.50;8381696;28;20239;-76
2022/04/18 03:02:28;;;;;;;5.97;3.20;;;;;;;8.97;39.53;98270.72;8381271;28;20230;-76
2022/04/18 03:06:32;;;;;;;4.53;3.20;;;;;;;9.05;39.45;98260.97;8385552;28;20223;-76
2022/04/18 03:14:57;;;;;;;5.80;3.23;;;;;;;8.94;39.90;98256.16;8387078;28;20204;-76
2022/04/18 03:19:00;;;;;;;5.20;3.50;;;;;;;8.98;40.17;98256.91;8386682;28;20271;-77
2022/04/18 03:23:02;;;;;;;6.53;3.37;;;;;;;9.05;39.74;98239.47;8386730;28;20392;-76
2022/04/18 03:27:06;;;;;;;4.17;3.03;;;;;;;8.95;40.27;98242.34;8386316;28;20240;-76
2022/04/18 03:31:10;;;;;;;4.23;2.90;;;;;;;8.99;40.19;98243.09;8387117;28;20250;-77
2022/04/18 03:35:13;;;;;;;3.90;3.20;;;;;;;8.71;40.20;98244.00;8386368;28;20203;-77
2022/04/18 03:43:36;;;;;;;7.00;3.27;;;;;;;8.67;40.65;98239.00;8385957;28;20204;-76
2022/04/18 03:47:40;;;;;;;5.20;2.93;;;;;;;8.78;40.58;98239.50;8385954;28;20509;-76
2022/04/18 03:51:43;;;;;;;6.17;3.40;;;;;;;8.70;40.81;98238.88;8385952;28;20539;-76
2022/04/18 03:55:46;;;;;;;5.20;3.40;;;;;;;8.61;40.75;98240.88;8385590;28;20200;-76
2022/04/18 03:59:49;;;;;;;3.67;3.20;;;;;;;8.55;41.11;98242.81;8385477;28;20200;-77
2022/04/18 04:03:53;;;;;;;4.93;3.10;;;;;;;8.60;40.84;98240.91;8385278;28;20210;-76
2022/04/18 04:07:56;;;;;;;4.30;2.97;;;;;;;8.54;40.87;98241.94;8385147;28;20206;-76
2022/04/18 04:11:59;;;;;;;5.90;3.23;;;;;;;8.35;41.28;98236.47;8385319;28;20441;-76
2022/04/18 04:16:02;;;;;;;5.17;3.40;;;;;;;8.34;41.09;98237.38;8385118;28;20203;-77
2022/04/18 04:20:08;;;;;;;4.50;3.17;;;;;;;8.47;41.14;98237.88;8385113;28;20199;-77
2022/04/18 04:24:11;;;;;;;3.97;3.30;;;;;;;8.34;41.50;98232.22;8384515;28;20230;-76
2022/04/18 04:28:14;;;;;;;5.03;3.00;;;;;;;8.41;40.75;98231.19;8384740;28;20200;-76
2022/04/18 04:32:17;;;;;;;6.23;2.90;;;;;;;8.31;41.15;98227.16;8384392;28;20235;-76
2022/04/18 04:36:21;;;;;;;5.13;3.10;;;;;;;8.29;41.29;98235.84;8384650;28;20207;-76
2022/04/18 04:40:24;;;;;;;4.17;3.33;;;;;;;8.33;41.10;98230.53;8384106;28;20239;-76
2022/04/18 04:44:27;;;;;;;3.70;3.20;;;;;;;8.37;41.32;98234.69;8384477;28;20510;-76
2022/04/18 04:48:29;;;;;;;5.10;3.43;;;;;;;8.21;41.38;98230.91;8384233;28;20218;-77
2022/04/18 04:52:34;;;;;;;4.97;3.00;;;;;;;8.30;41.13;98235.81;8383724;28;20534;-76
2022/04/18 04:56:37;;;;;;;4.77;3.30;;;;;;;8.22;41.31;98237.75;8383681;28;20517;-76
2022/04/18 05:00:40;;;;;;;4.53;3.43;;;;;;;8.48;41.06;98241.31;8383423;28;20199;-77
2022/04/18 05:04:43;;;;;;;4.03;3.20;;;;;;;8.37;41.38;98234.69;8383757;28;20337;-77
2022/04/18 05:08:47;;;;;;;4.03;3.20;;;;;;;8.52;41.43;98228.25;8382803;28;20391;-77
2022/04/18 05:12:51;;;;;;;4.83;2.90;;;;;;;8.49;41.77;98222.34;8382904;28;20219;-77
2022/04/18 05:16:54;;;;;;;6.63;3.07;;;;;;;8.60;41.80;98230.59;8382407;28;20199;-76
2022/04/18 05:20:58;;;;;;;4.07;2.87;;;;;;;8.72;42.03;98230.19;8382359;28;20196;-77
2022/04/18 05:25:02;;;;;;;4.97;2.90;;;;;;;8.92;41.87;98237.28;8382622;28;20406;-77
2022/04/18 05:29:05;;;;;;;6.60;3.30;;;;;;;9.00;42.33;98237.00;8379063;28;20216;-77
2022/04/18 05:33:08;;;;;;;3.40;2.70;;;;;;;9.13;42.26;98220.19;8382436;28;20549;-77
2022/04/18 05:37:11;;;;;;;4.60;3.10;;;;;;;9.24;41.90;98229.34;8382341;28;20215;-77
2022/04/18 05:41:16;;;;;;;3.33;2.83;;;;;;;9.45;41.80;98238.91;8382177;28;20526;-77
2022/04/18 05:45:19;;;;;;;4.17;3.10;;;;;;;9.67;42.12;98240.72;8382254;28;20273;-77
2022/04/18 05:49:22;;;;;;;4.67;2.73;;;;;;;9.86;41.60;98236.59;8382193;28;20422;-77
2022/04/18 05:53:26;;;;;;;5.67;2.70;;;;;;;10.39;41.29;98237.22;8382036;28;20234;-77
2022/04/18 05:57:30;;;;;;;4.47;2.73;;;;;;;10.71;40.11;98243.69;8382168;28;20204;-76
2022/04/18 06:01:35;;;;;;;4.53;2.70;;;;;;;10.91;40.56;98242.91;8381889;28;20199;-75
2022/04/18 06:05:39;;;;;;;5.30;2.80;;;;;;;10.89;40.45;98240.38;8382102;28;20203;-77
2022/04/18 06:09:42;;;;;;;4.37;2.97;;;;;;;11.27;39.52;98240.50;8381686;28;20195;-77
2022/04/18 06:13:51;;;;;;;6.37;2.40;;;;;;;11.79;38.52;98237.38;8382073;28;20294;-76
2022/04/18 06:17:54;;;;;;;3.07;2.23;;;;;;;12.02;36.29;98238.94;8382235;28;20200;-84
2022/04/18 06:21:57;;;;;;;3.17;2.30;;;;;;;12.13;36.55;98246.25;8382078;28;20521;-73
2022/04/18 06:26:00;;;;;;;3.60;2.07;;;;;;;12.60;36.41;98244.91;8382102;28;20585;-71
2022/04/18 06:30:08;;;;;;;3.67;2.30;;;;;;;12.86;36.36;98244.47;8381656;28;20196;-77
2022/04/18 06:34:12;;;;;;;3.17;2.20;;;;;;;13.01;36.01;98245.50;8381685;28;20246;-76
2022/04/18 06:38:15;;;;;;;4.07;2.53;;;;;;;12.94;36.64;98245.88;8381431;28;20376;-76
2022/04/18 06:42:18;;;;;;;2.70;2.30;;;;;;;13.21;36.33;98239.31;8387289;28;20239;-76
2022/04/18 06:46:22;;;;;;;8.33;2.50;;;;;;;13.52;35.89;98247.31;8387851;28;20200;-76
2022/04/18 06:50:26;;;;;;;4.97;2.50;;;;;;;13.81;36.02;98237.97;8387652;28;20270;-77
2022/04/18 06:54:29;;;;;;;3.67;2.60;;;;;;;13.86;33.50;98236.00;8387725;28;20227;-77
2022/04/18 06:58:31;;;;;;;3.50;2.50;;;;;;;13.85;34.03;98235.13;8387796;28;20210;-77
2022/04/18 07:02:36;;;;;;;3.83;2.80;;;;;;;14.63;33.49;98243.03;8387496;28;20203;-77
2022/04/18 07:06:39;;;;;;;3.60;2.70;;;;;;;14.84;32.79;98240.16;8386819;28;20204;-76
2022/04/18 07:10:42;;;;;;;5.30;3.50;;;;;;;15.32;33.19;98232.16;8386845;28;20502;-77
2022/04/18 07:14:46;;;;;;;3.93;2.77;;;;;;;15.44;31.91;98241.88;8386451;28;20526;-77
2022/04/18 07:18:50;;;;;;;4.67;2.87;;;;;;;15.77;31.84;98235.56;8385698;28;20192;-77
2022/04/18 07:22:53;;;;;;;4.60;2.50;;;;;;;15.95;30.84;98237.03;8385919;28;20202;-77
2022/04/18 07:27:00;;;;;;;16.27;2.83;;;;;;;15.95;31.77;98237.03;8385728;28;20203;-77
2022/04/18 07:31:07;;;;;;;3.87;2.80;;;;;;;15.97;30.52;98231.72;8385825;28;20219;-77
2022/04/18 07:35:12;;;;;;;4.77;2.80;;;;;;;16.30;30.51;98235.78;8385584;28;20265;-77
2022/04/18 07:39:16;;;;;;;38.33;5.13;;;;;;;16.79;30.03;98232.59;8384799;28;20387;-77
2022/04/18 07:43:21;;;;;;;3.87;2.93;;;;;;;16.81;29.35;98231.59;8385184;28;20234;-76
2022/04/18 07:47:25;;;;;;;3.40;2.60;;;;;;;17.35;28.84;98230.63;8385029;28;20377;-77
2022/04/18 07:51:35;;;;;;;4.07;3.40;;;;;;;17.58;28.02;98233.47;8383904;28;20196;-77
2022/04/18 07:55:38;;;;;;;5.33;3.83;;;;;;;17.60;29.66;98239.44;8384310;28;20600;-77
2022/04/18 07:59:41;;;;;;;11.60;4.60;;;;;;;18.07;28.76;98237.94;8384662;28;20192;-77
2022/04/18 08:03:44;;;;;;;5.57;2.80;;;;;;;18.44;27.29;98232.69;8385481;28;20218;-77
2022/04/18 08:07:49;;;;;;;4.47;2.30;;;;;;;18.73;26.07;98232.34;8384988;28;20207;-77
2022/04/18 08:11:52;;;;;;;6.13;2.27;;;;;;;18.68;26.16;98234.47;8384970;28;20204;-77
2022/04/18 08:15:56;;;;;;;4.47;2.30;;;;;;;18.52;25.81;98237.38;8385210;28;20219;-77
2022/04/18 08:19:59;;;;;;;3.97;1.97;;;;;;;18.83;25.63;98232.53;8385323;28;20203;-77
2022/04/18 08:24:04;;;;;;;3.13;2.07;;;;;;;18.76;27.11;98232.94;8384945;28;20223;-76
2022/04/18 08:28:07;;;;;;;3.77;2.10;;;;;;;19.32;25.25;98226.22;8384749;28;20257;-76
2022/04/18 08:32:10;;;;;;;4.63;2.30;;;;;;;19.14;24.88;98221.41;8384508;28;20272;-76
2022/04/18 08:36:13;;;;;;;5.87;2.57;;;;;;;19.50;24.79;98226.63;8384118;28;20234;-77
2022/04/18 08:40:17;;;;;;;3.20;2.33;;;;;;;19.59;22.79;98222.44;8384578;28;20423;-76
2022/04/18 08:44:22;;;;;;;3.43;1.87;;;;;;;20.11;24.44;98224.47;8384864;28;20395;-76
2022/04/18 08:52:57;;;;;;;6.50;2.03;;;;;;;19.51;23.39;98209.91;8307562;28;20227;-76
2022/04/18 08:57:02;;;;;;;3.20;1.83;;;;;;;20.59;24.01;98210.13;8384078;28;20201;-76
2022/04/18 09:01:05;;;;;;;2.80;2.13;;;;;;;20.17;22.26;98206.56;8383281;28;20200;-77
2022/04/18 09:05:11;;;;;;;5.60;1.90;;;;;;;20.66;22.09;98192.91;8383214;28;20203;-76
2022/04/18 09:09:14;;;;;;;3.90;2.20;;;;;;;20.37;21.79;98191.78;8383777;28;20264;-76
2022/04/18 09:13:24;;;;;;;3.00;1.87;;;;;;;21.14;20.67;98182.88;8382911;28;20225;-76
2022/04/18 09:17:29;;;;;;;4.90;2.03;;;;;;;20.74;21.98;98186.19;8383013;28;20214;-76
2022/04/18 09:21:32;;;;;;;3.27;1.87;;;;;;;21.47;20.81;98179.19;8382789;28;20208;-77
2022/04/18 09:25:39;;;;;;;3.30;2.17;;;;;;;21.42;21.62;98176.09;8383106;28;20410;-77
2022/04/18 09:29:43;;;;;;;1.87;1.50;;;;;;;21.74;20.87;98165.44;8382603;28;20206;-77
2022/04/18 09:33:53;;;;;;;7.00;1.67;;;;;;;21.71;20.52;98172.78;8382695;28;20225;-76
2022/04/18 09:38:00;;;;;;;3.37;1.37;;;;;;;21.61;18.91;98165.66;8382416;28;20184;-77
2022/04/18 09:42:08;;;;;;;3.57;1.33;;;;;;;21.36;18.34;98163.44;8382599;28;20235;-77
2022/04/18 09:46:13;;;;;;;2.70;1.60;;;;;;;21.81;18.09;98165.72;8382861;28;20215;-77
2022/04/18 09:54:37;;;;;;;1.47;1.30;;;;;;;21.54;19.68;98146.06;8382005;28;20580;-76
2022/04/18 09:58:39;;;;;;;3.37;1.67;;;;;;;20.25;19.76;98149.75;8382522;28;20199;-76
2022/04/18 10:03:04;;;;;;;4.47;1.60;;;;;;;21.89;19.57;98141.31;8381838;28;20224;-76
2022/04/18 10:07:07;;;;;;;2.40;1.60;;;;;;;21.79;18.50;98134.22;8382586;28;20269;-76
2022/04/18 10:11:11;;;;;;;2.40;1.40;;;;;;;20.55;19.48;98142.94;8382190;28;20202;-76
2022/04/18 10:15:14;;;;;;;2.93;1.80;;;;;;;20.19;20.03;98146.78;8386452;28;20234;-76
2022/04/18 10:19:39;;;;;;;2.27;1.53;;;;;;;21.45;19.78;98123.97;8388957;28;20489;-76
2022/04/18 10:24:04;;;;;;;3.70;1.73;;;;;;;21.09;18.96;98123.53;8388762;28;20242;-76
2022/04/18 10:28:14;;;;;;;2.67;1.60;;;;;;;22.11;19.48;98117.38;8388676;28;20468;-76
2022/04/18 10:32:22;;;;;;;3.50;1.73;;;;;;;22.44;20.02;98108.22;8388164;28;20184;-77
2022/04/18 10:36:28;;;;;;;2.70;1.50;;;;;;;21.59;18.83;98114.91;8388027;28;20230;-77
2022/04/18 10:40:40;;;;;;;2.93;1.40;;;;;;;21.97;18.58;98107.19;8388478;28;20424;-77
2022/04/18 10:44:42;;;;;;;2.93;1.60;;;;;;;22.59;19.39;98100.72;8387783;28;20188;-77
2022/04/18 10:48:55;;;;;;;1.80;1.60;;;;;;;22.63;19.44;98096.81;8387612;28;20202;-77
2022/04/18 10:53:37;;;;;;;2.13;1.57;;;;;;;22.73;18.02;98091.56;8387449;28;20244;-77
2022/04/18 10:57:41;;;;;;;3.13;1.60;;;;;;;22.28;19.48;98088.69;8379253;28;20206;-75
2022/04/18 11:01:44;;;;;;;1.97;1.43;;;;;;;22.55;18.32;98096.69;8387310;28;20205;-77
2022/04/18 11:05:47;;;;;;;2.17;1.50;;;;;;;22.24;18.61;98091.56;8387012;28;20203;-77
2022/04/18 11:09:51;;;;;;;2.53;1.60;;;;;;;22.06;18.49;98086.09;8387319;28;20200;-76
2022/04/18 11:14:00;;;;;;;1.77;1.30;;;;;;;22.93;17.73;98081.75;8386714;28;20226;-77
2022/04/18 11:18:04;;;;;;;2.33;1.40;;;;;;;23.25;18.33;98077.94;8386426;28;20194;-77
2022/04/18 11:22:10;;;;;;;5.60;3.50;;;;;;;23.03;17.71;98072.03;8386880;28;20502;-77
2022/04/18 11:26:14;;;;;;;3.30;1.70;;;;;;;23.13;17.61;98069.38;8385010;28;20226;-75
2022/04/18 11:30:18;;;;;;;2.10;1.60;;;;;;;21.78;18.28;98069.31;8383891;28;20199;-77
2022/04/18 11:34:25;;;;;;;3.43;1.33;;;;;;;22.52;17.91;98057.38;8385524;28;20248;-77
2022/04/18 11:38:29;;;;;;;4.53;1.87;;;;;;;22.26;17.67;98051.88;8385349;28;20206;-77
2022/04/18 11:42:33;;;;;;;3.73;1.73;;;;;;;22.68;17.83;98050.72;8384909;28;20224;-75
2022/04/18 11:46:37;;;;;;;6.60;1.60;;;;;;;22.06;18.43;98046.56;8382364;28;20196;-76
2022/04/18 11:50:42;;;;;;;6.30;2.20;;;;;;;22.08;18.28;98041.16;8384940;28;20217;-76
2022/04/18 11:54:58;;;;;;;3.93;2.13;;;;;;;21.57;18.90;98036.94;8385144;28;20280;-77
2022/04/18 11:59:04;;;;;;;2.03;1.40;;;;;;;22.42;17.81;98032.84;8363226;28;20211;-76
2022/04/18 12:07:30;;;;;;;4.23;1.77;;;;;;;21.54;18.25;98027.50;8384065;28;20196;-76
2022/04/18 12:11:34;;;;;;;4.63;1.73;;;;;;;21.36;18.49;98013.28;8386329;28;20402;-77
2022/04/18 12:15:38;;;;;;;2.73;1.30;;;;;;;22.47;18.47;98012.13;8383295;28;20420;-77
2022/04/18 12:19:42;;;;;;;3.83;1.40;;;;;;;22.24;18.36;98001.88;8384110;28;20200;-76
2022/04/18 12:23:53;;;;;;;3.03;1.50;;;;;;;21.66;18.88;97997.41;8383853;28;20522;-75
2022/04/18 12:27:58;;;;;;;2.83;1.40;;;;;;;22.30;21.12;97994.41;8383203;28;20195;-73
2022/04/18 12:32:01;;;;;;;2.93;1.47;;;;;;;23.00;20.68;97985.16;8383928;28;20203;-74
2022/04/18 12:36:05;;;;;;;2.93;1.77;;;;;;;22.11;19.54;97985.50;8383278;28;20224;-74
2022/04/18 12:40:13;;;;;;;2.53;1.50;;;;;;;22.22;19.63;97987.16;8382848;28;20245;-72
2022/04/18 12:44:16;;;;;;;2.47;1.30;;;;;;;22.14;20.08;97972.06;8381631;28;20203;-75
2022/04/18 12:48:23;;;;;;;1.83;1.30;;;;;;;22.69;19.19;97970.53;8381930;28;20202;-73
2022/04/18 12:52:27;;;;;;;1.50;1.37;;;;;;;22.68;19.66;97963.63;8382028;28;20208;-74
2022/04/18 12:56:31;;;;;;;2.37;1.40;;;;;;;22.73;18.44;97961.34;8383436;28;20230;-74
2022/04/18 13:00:36;;;;;;;3.27;1.70;;;;;;;22.59;18.15;97952.09;8382607;28;20216;-74
2022/04/18 13:04:39;;;;;;;2.20;1.30;;;;;;;22.49;19.17;97946.03;8382953;28;20249;-75
2022/04/18 13:08:43;;;;;;;2.27;1.40;;;;;;;22.07;18.54;97934.03;8382459;28;20196;-74
2022/04/18 13:12:46;;;;;;;3.30;1.57;;;;;;;21.54;19.23;97940.56;8382654;28;20386;-74
2022/04/18 13:16:49;;;;;;;1.70;1.47;;;;;;;21.82;19.10;97928.38;8382358;28;20223;-72
2022/04/18 13:20:52;;;;;;;4.47;1.70;;;;;;;22.22;19.58;97921.22;8382020;28;20197;-74
2022/04/18 13:24:56;;;;;;;2.13;1.50;;;;;;;21.43;20.04;97924.84;8381858;28;20222;-75
2022/04/18 13:28:59;;;;;;;4.30;1.63;;;;;;;21.76;19.83;97907.00;8381542;28;20202;-75
2022/04/18 13:33:02;;;;;;;3.73;1.50;;;;;;;21.77;20.42;97914.75;8382323;28;20192;-75
2022/04/18 13:37:05;;;;;;;2.13;1.33;;;;;;;21.57;20.28;97902.56;8381997;28;20225;-74
2022/04/18 13:41:10;;;;;;;4.40;1.40;;;;;;;21.45;20.17;97905.34;8381566;28;20258;-75
2022/04/18 13:45:14;;;;;;;4.10;1.27;;;;;;;22.11;20.25;97903.75;8381394;28;20202;-75
2022/04/18 13:49:16;;;;;;;2.43;1.30;;;;;;;22.34;19.14;97890.25;8381001;28;20198;-73
2022/04/18 13:53:19;;;;;;;3.23;1.20;;;;;;;22.47;20.61;97892.59;8381898;28;20214;-73
2022/04/18 13:57:24;;;;;;;2.00;1.20;;;;;;;22.72;19.66;97886.63;8381141;28;20230;-73
2022/04/18 14:01:27;;;;;;;3.20;1.40;;;;;;;22.64;19.30;97878.63;8381720;28;20384;-76
2022/04/18 14:05:30;;;;;;;2.30;1.30;;;;;;;22.98;20.43;97885.91;8381204;28;20211;-76
2022/04/18 14:09:33;;;;;;;2.23;1.30;;;;;;;22.83;21.05;97869.75;8381056;28;20199;-76
2022/04/18 14:13:39;;;;;;;3.57;1.20;;;;;;;22.69;21.49;97878.97;8381428;28;20214;-76
2022/04/18 14:22:03;;;;;;;1.90;1.20;;;;;;;23.01;20.41;97856.56;8381320;28;20205;-75
2022/04/18 14:26:06;;;;;;;2.37;1.20;;;;;;;22.65;20.18;97861.78;8381361;28;20227;-75
2022/04/18 14:30:13;;;;;;;1.83;1.30;;;;;;;22.59;20.41;97857.09;8381403;28;20213;-76
2022/04/18 14:34:16;;;;;;;2.07;1.10;;;;;;;22.53;19.40;97852.41;8381136;28;20204;-75
2022/04/18 14:38:19;;;;;;;2.27;1.20;;;;;;;22.71;20.51;97857.72;8380948;28;20413;-75
2022/04/18 14:42:24;;;;;;;3.17;1.33;;;;;;;21.64;21.83;97846.53;8381521;28;20237;-75
2022/04/18 14:46:29;;;;;;;2.63;1.20;;;;;;;21.87;21.63;97843.56;8380198;28;20196;-74
2022/04/18 14:50:32;;;;;;;3.50;1.40;;;;;;;22.50;20.48;97840.31;8380800;28;20217;-75
2022/04/18 14:54:35;;;;;;;2.60;1.23;;;;;;;22.28;20.87;97832.81;8381204;28;20371;-75
2022/04/18 14:58:38;;;;;;;1.83;1.30;;;;;;;22.35;20.40;97823.31;8381057;28;20230;-76
2022/04/18 15:02:44;;;;;;;3.23;1.43;;;;;;;22.36;21.26;97828.47;8385216;28;20207;-75
2022/04/18 15:06:47;;;;;;;3.07;1.33;;;;;;;21.59;20.29;97813.66;8387208;28;20245;-75
2022/04/18 15:10:49;;;;;;;1.90;1.03;;;;;;;21.84;21.49;97812.25;8386912;28;20202;-75
2022/04/18 15:14:53;;;;;;;4.97;1.60;;;;;;;21.46;20.97;97806.91;8386859;28;20211;-75
2022/04/18 15:18:57;;;;;;;3.20;1.27;;;;;;;21.85;21.44;97808.63;8386702;28;20201;-77
2022/04/18 15:23:00;;;;;;;3.07;1.30;;;;;;;21.95;19.71;97804.19;8386556;28;20204;-76
2022/04/18 15:27:04;;;;;;;3.17;1.30;;;;;;;22.06;21.03;97808.41;8386702;28;20275;-77
